GNY weather

Şanlıurfa GAP Airport
Şanlıurfa, Şanlıurfa Province, Turkey

Public forecast

Using degrees Celsius for public forecast. Weather courtesy of forecast.io.

Current aviation weather report (METAR) for Şanlıurfa GAP Airport

Retrieved 2020/05/30 04:20 UTC (38 minutes ago):

LTCS 300420Z 29009KT CAVOK 16/07 Q1017 RMK RWY22 30010KT

Aviation forecast (TAF) for Şanlıurfa GAP Airport

Retrieved 2020-05-30 00:00 UTC (5 hours ago):

TAF LTCS 292240Z 3000/3024 26015KT CAVOK BECMG 3002/3004 VRB02KT BECMG 3009/3011 23012KT TEMPO 3018/3021 27015G25KT